sensor_id;sensor_type;location;lat;lon;timestamp;P1;durP1;ratioP1;P2;durP2;ratioP2
49610;SDS011;35515;48.766;9.176;2024-02-26T00:00:16;3.17;;;2.20;;
49610;SDS011;35515;48.766;9.176;2024-02-26T00:02:45;3.33;;;2.10;;
49610;SDS011;35515;48.766;9.176;2024-02-26T00:05:12;3.47;;;1.80;;
49610;SDS011;35515;48.766;9.176;2024-02-26T00:07:39;3.28;;;2.22;;
49610;SDS011;35515;48.766;9.176;2024-02-26T00:10:05;4.22;;;2.03;;
49610;SDS011;35515;48.766;9.176;2024-02-26T00:12:33;2.65;;;1.92;;
49610;SDS011;35515;48.766;9.176;2024-02-26T00:14:59;3.45;;;2.40;;
49610;SDS011;35515;48.766;9.176;2024-02-26T00:17:26;3.05;;;2.40;;
49610;SDS011;35515;48.766;9.176;2024-02-26T00:19:53;4.68;;;2.67;;
49610;SDS011;35515;48.766;9.176;2024-02-26T00:22:20;3.08;;;2.40;;
49610;SDS011;35515;48.766;9.176;2024-02-26T00:24:47;3.42;;;2.40;;
49610;SDS011;35515;48.766;9.176;2024-02-26T00:27:13;4.75;;;2.38;;
49610;SDS011;35515;48.766;9.176;2024-02-26T00:29:40;3.28;;;2.10;;
49610;SDS011;35515;48.766;9.176;2024-02-26T00:32:06;3.95;;;2.20;;
49610;SDS011;35515;48.766;9.176;2024-02-26T00:34:33;3.28;;;2.35;;
49610;SDS011;35515;48.766;9.176;2024-02-26T00:37:01;4.88;;;2.80;;
49610;SDS011;35515;48.766;9.176;2024-02-26T00:39:28;3.22;;;2.22;;
49610;SDS011;35515;48.766;9.176;2024-02-26T00:41:54;3.45;;;2.60;;
49610;SDS011;35515;48.766;9.176;2024-02-26T00:44:21;5.60;;;2.30;;
49610;SDS011;35515;48.766;9.176;2024-02-26T00:46:47;4.85;;;2.05;;
49610;SDS011;35515;48.766;9.176;2024-02-26T00:49:14;3.40;;;2.40;;
49610;SDS011;35515;48.766;9.176;2024-02-26T00:51:40;4.72;;;2.85;;
49610;SDS011;35515;48.766;9.176;2024-02-26T00:54:08;4.43;;;2.40;;
49610;SDS011;35515;48.766;9.176;2024-02-26T00:56:35;6.88;;;2.40;;
49610;SDS011;35515;48.766;9.176;2024-02-26T00:59:01;3.45;;;2.00;;
49610;SDS011;35515;48.766;9.176;2024-02-26T01:01:28;6.38;;;2.15;;
49610;SDS011;35515;48.766;9.176;2024-02-26T01:03:54;3.33;;;2.50;;
49610;SDS011;35515;48.766;9.176;2024-02-26T01:06:21;3.88;;;2.75;;
49610;SDS011;35515;48.766;9.176;2024-02-26T01:08:47;3.38;;;2.30;;
49610;SDS011;35515;48.766;9.176;2024-02-26T01:11:15;4.35;;;2.60;;
49610;SDS011;35515;48.766;9.176;2024-02-26T01:13:42;4.20;;;2.60;;
49610;SDS011;35515;48.766;9.176;2024-02-26T01:16:08;4.25;;;2.45;;
49610;SDS011;35515;48.766;9.176;2024-02-26T01:18:35;4.18;;;2.00;;
49610;SDS011;35515;48.766;9.176;2024-02-26T01:21:02;3.33;;;2.35;;
49610;SDS011;35515;48.766;9.176;2024-02-26T01:23:31;4.15;;;2.25;;
49610;SDS011;35515;48.766;9.176;2024-02-26T01:25:58;3.30;;;2.35;;
49610;SDS011;35515;48.766;9.176;2024-02-26T01:28:26;3.00;;;2.20;;
49610;SDS011;35515;48.766;9.176;2024-02-26T01:30:52;3.40;;;2.22;;
49610;SDS011;35515;48.766;9.176;2024-02-26T01:33:19;4.15;;;2.38;;
49610;SDS011;35515;48.766;9.176;2024-02-26T01:35:45;3.78;;;2.20;;
49610;SDS011;35515;48.766;9.176;2024-02-26T01:38:12;4.32;;;2.63;;
49610;SDS011;35515;48.766;9.176;2024-02-26T01:40:39;3.78;;;2.35;;
49610;SDS011;35515;48.766;9.176;2024-02-26T01:43:05;3.58;;;2.30;;
49610;SDS011;35515;48.766;9.176;2024-02-26T01:45:33;4.38;;;2.20;;
49610;SDS011;35515;48.766;9.176;2024-02-26T01:48:00;3.60;;;2.50;;
49610;SDS011;35515;48.766;9.176;2024-02-26T01:50:26;2.72;;;2.03;;
49610;SDS011;35515;48.766;9.176;2024-02-26T01:52:53;3.70;;;2.40;;
49610;SDS011;35515;48.766;9.176;2024-02-26T01:55:22;3.83;;;2.53;;
49610;SDS011;35515;48.766;9.176;2024-02-26T01:57:50;5.88;;;2.20;;
49610;SDS011;35515;48.766;9.176;2024-02-26T02:00:19;3.35;;;1.80;;
49610;SDS011;35515;48.766;9.176;2024-02-26T02:02:48;4.22;;;2.10;;
49610;SDS011;35515;48.766;9.176;2024-02-26T02:05:15;3.13;;;2.28;;
49610;SDS011;35515;48.766;9.176;2024-02-26T02:07:43;3.00;;;2.30;;
49610;SDS011;35515;48.766;9.176;2024-02-26T02:10:09;5.28;;;2.65;;
49610;SDS011;35515;48.766;9.176;2024-02-26T02:12:36;3.63;;;2.60;;
49610;SDS011;35515;48.766;9.176;2024-02-26T02:15:05;5.13;;;2.40;;
49610;SDS011;35515;48.766;9.176;2024-02-26T02:17:32;3.40;;;2.30;;
49610;SDS011;35515;48.766;9.176;2024-02-26T02:20:00;3.88;;;2.40;;
49610;SDS011;35515;48.766;9.176;2024-02-26T02:22:29;3.80;;;2.17;;
49610;SDS011;35515;48.766;9.176;2024-02-26T02:24:57;4.05;;;2.50;;
49610;SDS011;35515;48.766;9.176;2024-02-26T02:27:23;3.20;;;2.10;;
49610;SDS011;35515;48.766;9.176;2024-02-26T02:29:50;3.33;;;1.90;;
49610;SDS011;35515;48.766;9.176;2024-02-26T02:32:17;2.88;;;2.22;;
49610;SDS011;35515;48.766;9.176;2024-02-26T02:34:45;2.95;;;2.15;;
49610;SDS011;35515;48.766;9.176;2024-02-26T02:37:12;3.83;;;1.83;;
49610;SDS011;35515;48.766;9.176;2024-02-26T02:39:40;2.35;;;1.75;;
49610;SDS011;35515;48.766;9.176;2024-02-26T02:42:08;3.08;;;2.15;;
49610;SDS011;35515;48.766;9.176;2024-02-26T02:44:34;2.53;;;1.90;;
49610;SDS011;35515;48.766;9.176;2024-02-26T02:47:01;2.10;;;1.63;;
49610;SDS011;35515;48.766;9.176;2024-02-26T02:49:27;2.30;;;1.70;;
49610;SDS011;35515;48.766;9.176;2024-02-26T02:51:54;2.05;;;1.70;;
49610;SDS011;35515;48.766;9.176;2024-02-26T02:54:22;2.38;;;1.83;;
49610;SDS011;35515;48.766;9.176;2024-02-26T02:56:50;2.30;;;1.77;;
49610;SDS011;35515;48.766;9.176;2024-02-26T02:59:17;3.08;;;1.85;;
49610;SDS011;35515;48.766;9.176;2024-02-26T03:01:43;3.22;;;1.80;;
49610;SDS011;35515;48.766;9.176;2024-02-26T03:04:10;3.10;;;1.73;;
49610;SDS011;35515;48.766;9.176;2024-02-26T03:06:37;3.10;;;2.00;;
49610;SDS011;35515;48.766;9.176;2024-02-26T03:09:03;2.40;;;1.75;;
49610;SDS011;35515;48.766;9.176;2024-02-26T03:11:30;3.25;;;2.08;;
49610;SDS011;35515;48.766;9.176;2024-02-26T03:13:58;2.53;;;1.98;;
49610;SDS011;35515;48.766;9.176;2024-02-26T03:16:24;2.97;;;1.88;;
49610;SDS011;35515;48.766;9.176;2024-02-26T03:18:51;3.53;;;1.67;;
49610;SDS011;35515;48.766;9.176;2024-02-26T03:21:17;3.17;;;1.92;;
49610;SDS011;35515;48.766;9.176;2024-02-26T03:23:44;3.13;;;1.70;;
49610;SDS011;35515;48.766;9.176;2024-02-26T03:26:11;2.22;;;1.75;;
49610;SDS011;35515;48.766;9.176;2024-02-26T03:28:39;1.73;;;1.52;;
49610;SDS011;35515;48.766;9.176;2024-02-26T03:31:07;3.17;;;1.80;;
49610;SDS011;35515;48.766;9.176;2024-02-26T03:33:34;3.40;;;1.48;;
49610;SDS011;35515;48.766;9.176;2024-02-26T03:36:00;4.00;;;1.77;;
49610;SDS011;35515;48.766;9.176;2024-02-26T03:38:28;2.70;;;1.75;;
49610;SDS011;35515;48.766;9.176;2024-02-26T03:40:55;3.03;;;2.00;;
49610;SDS011;35515;48.766;9.176;2024-02-26T03:43:21;2.13;;;1.75;;
49610;SDS011;35515;48.766;9.176;2024-02-26T03:45:48;5.47;;;1.90;;
49610;SDS011;35515;48.766;9.176;2024-02-26T03:48:16;2.50;;;1.75;;
49610;SDS011;35515;48.766;9.176;2024-02-26T03:50:42;2.58;;;1.90;;
49610;SDS011;35515;48.766;9.176;2024-02-26T03:53:09;2.10;;;1.52;;
49610;SDS011;35515;48.766;9.176;2024-02-26T03:55:37;2.47;;;1.85;;
49610;SDS011;35515;48.766;9.176;2024-02-26T03:58:04;2.13;;;1.48;;
49610;SDS011;35515;48.766;9.176;2024-02-26T04:00:30;2.55;;;1.67;;
49610;SDS011;35515;48.766;9.176;2024-02-26T04:02:57;2.63;;;1.90;;
49610;SDS011;35515;48.766;9.176;2024-02-26T04:05:25;3.15;;;2.05;;
49610;SDS011;35515;48.766;9.176;2024-02-26T04:07:51;3.35;;;2.10;;
49610;SDS011;35515;48.766;9.176;2024-02-26T04:10:18;2.80;;;1.50;;
49610;SDS011;35515;48.766;9.176;2024-02-26T04:12:44;2.85;;;1.90;;
49610;SDS011;35515;48.766;9.176;2024-02-26T04:15:11;4.70;;;2.10;;
49610;SDS011;35515;48.766;9.176;2024-02-26T04:17:38;3.05;;;2.08;;
49610;SDS011;35515;48.766;9.176;2024-02-26T04:20:05;2.40;;;1.98;;
49610;SDS011;35515;48.766;9.176;2024-02-26T04:22:34;4.50;;;2.10;;
49610;SDS011;35515;48.766;9.176;2024-02-26T04:25:00;3.97;;;2.47;;
49610;SDS011;35515;48.766;9.176;2024-02-26T04:27:28;4.68;;;2.40;;
49610;SDS011;35515;48.766;9.176;2024-02-26T04:29:54;6.35;;;3.20;;
49610;SDS011;35515;48.766;9.176;2024-02-26T04:32:21;3.90;;;2.30;;
49610;SDS011;35515;48.766;9.176;2024-02-26T04:34:47;4.22;;;2.35;;
49610;SDS011;35515;48.766;9.176;2024-02-26T04:37:14;5.05;;;2.60;;
49610;SDS011;35515;48.766;9.176;2024-02-26T04:39:42;2.58;;;1.83;;
49610;SDS011;35515;48.766;9.176;2024-02-26T04:42:08;3.25;;;1.90;;
49610;SDS011;35515;48.766;9.176;2024-02-26T04:44:35;2.45;;;1.48;;
49610;SDS011;35515;48.766;9.176;2024-02-26T04:47:02;3.38;;;1.98;;
49610;SDS011;35515;48.766;9.176;2024-02-26T04:49:28;2.42;;;1.83;;
49610;SDS011;35515;48.766;9.176;2024-02-26T04:51:55;2.55;;;1.83;;
49610;SDS011;35515;48.766;9.176;2024-02-26T04:54:21;3.08;;;1.80;;
49610;SDS011;35515;48.766;9.176;2024-02-26T04:56:49;2.78;;;1.90;;
49610;SDS011;35515;48.766;9.176;2024-02-26T04:59:16;3.03;;;1.95;;
49610;SDS011;35515;48.766;9.176;2024-02-26T05:01:43;3.55;;;2.00;;
49610;SDS011;35515;48.766;9.176;2024-02-26T05:04:10;2.90;;;1.92;;
49610;SDS011;35515;48.766;9.176;2024-02-26T05:06:37;2.85;;;1.88;;
49610;SDS011;35515;48.766;9.176;2024-02-26T05:09:03;4.60;;;2.20;;
49610;SDS011;35515;48.766;9.176;2024-02-26T05:11:30;3.33;;;2.13;;
49610;SDS011;35515;48.766;9.176;2024-02-26T05:13:58;2.47;;;1.88;;
49610;SDS011;35515;48.766;9.176;2024-02-26T05:16:25;5.18;;;2.40;;
49610;SDS011;35515;48.766;9.176;2024-02-26T05:18:52;4.70;;;2.30;;
49610;SDS011;35515;48.766;9.176;2024-02-26T05:21:19;4.72;;;2.53;;
49610;SDS011;35515;48.766;9.176;2024-02-26T05:23:45;3.42;;;2.30;;
49610;SDS011;35515;48.766;9.176;2024-02-26T05:26:12;3.28;;;1.73;;
49610;SDS011;35515;48.766;9.176;2024-02-26T05:28:45;4.47;;;2.40;;
49610;SDS011;35515;48.766;9.176;2024-02-26T05:31:13;2.85;;;2.00;;
49610;SDS011;35515;48.766;9.176;2024-02-26T05:33:40;4.13;;;1.88;;
49610;SDS011;35515;48.766;9.176;2024-02-26T05:36:08;4.18;;;2.45;;
49610;SDS011;35515;48.766;9.176;2024-02-26T05:38:35;3.47;;;2.17;;
49610;SDS011;35515;48.766;9.176;2024-02-26T05:41:01;2.75;;;2.15;;
49610;SDS011;35515;48.766;9.176;2024-02-26T05:43:29;3.47;;;2.47;;
49610;SDS011;35515;48.766;9.176;2024-02-26T05:45:56;3.35;;;2.35;;
49610;SDS011;35515;48.766;9.176;2024-02-26T05:48:24;3.28;;;2.40;;
49610;SDS011;35515;48.766;9.176;2024-02-26T05:50:50;3.83;;;2.50;;
49610;SDS011;35515;48.766;9.176;2024-02-26T05:53:17;4.18;;;2.63;;
49610;SDS011;35515;48.766;9.176;2024-02-26T05:55:43;5.45;;;2.50;;
49610;SDS011;35515;48.766;9.176;2024-02-26T05:58:10;4.82;;;2.65;;
49610;SDS011;35515;48.766;9.176;2024-02-26T06:00:36;5.05;;;2.70;;
49610;SDS011;35515;48.766;9.176;2024-02-26T06:03:03;4.75;;;2.70;;
49610;SDS011;35515;48.766;9.176;2024-02-26T06:05:31;4.50;;;2.83;;
49610;SDS011;35515;48.766;9.176;2024-02-26T06:07:57;4.57;;;2.83;;
49610;SDS011;35515;48.766;9.176;2024-02-26T06:10:24;3.58;;;2.42;;
49610;SDS011;35515;48.766;9.176;2024-02-26T06:12:51;3.83;;;2.70;;
49610;SDS011;35515;48.766;9.176;2024-02-26T06:15:17;3.25;;;2.42;;
49610;SDS011;35515;48.766;9.176;2024-02-26T06:17:44;3.80;;;2.80;;
49610;SDS011;35515;48.766;9.176;2024-02-26T06:20:11;2.85;;;2.38;;
49610;SDS011;35515;48.766;9.176;2024-02-26T06:22:40;3.75;;;2.75;;
49610;SDS011;35515;48.766;9.176;2024-02-26T06:25:07;4.25;;;2.70;;
49610;SDS011;35515;48.766;9.176;2024-02-26T06:27:34;3.47;;;2.70;;
49610;SDS011;35515;48.766;9.176;2024-02-26T06:30:00;4.13;;;2.40;;
49610;SDS011;35515;48.766;9.176;2024-02-26T06:32:27;4.63;;;3.10;;
49610;SDS011;35515;48.766;9.176;2024-02-26T06:34:54;4.70;;;2.83;;
49610;SDS011;35515;48.766;9.176;2024-02-26T06:37:20;6.88;;;3.05;;
49610;SDS011;35515;48.766;9.176;2024-02-26T06:39:48;5.80;;;3.60;;
49610;SDS011;35515;48.766;9.176;2024-02-26T06:42:17;4.53;;;2.65;;
49610;SDS011;35515;48.766;9.176;2024-02-26T06:44:43;5.70;;;3.05;;
49610;SDS011;35515;48.766;9.176;2024-02-26T06:47:10;4.18;;;2.75;;
49610;SDS011;35515;48.766;9.176;2024-02-26T06:49:36;4.90;;;3.33;;
49610;SDS011;35515;48.766;9.176;2024-02-26T06:52:03;5.82;;;3.38;;
49610;SDS011;35515;48.766;9.176;2024-02-26T06:54:31;7.68;;;3.25;;
49610;SDS011;35515;48.766;9.176;2024-02-26T06:56:59;5.43;;;3.33;;
49610;SDS011;35515;48.766;9.176;2024-02-26T06:59:25;6.72;;;3.88;;
49610;SDS011;35515;48.766;9.176;2024-02-26T07:01:52;3.70;;;3.05;;
49610;SDS011;35515;48.766;9.176;2024-02-26T07:04:19;4.55;;;2.92;;
49610;SDS011;35515;48.766;9.176;2024-02-26T07:06:46;4.25;;;3.22;;
49610;SDS011;35515;48.766;9.176;2024-02-26T07:09:13;5.55;;;3.42;;
49610;SDS011;35515;48.766;9.176;2024-02-26T07:11:40;5.75;;;3.22;;
49610;SDS011;35515;48.766;9.176;2024-02-26T07:14:10;6.47;;;3.35;;
49610;SDS011;35515;48.766;9.176;2024-02-26T07:16:36;3.90;;;2.95;;
49610;SDS011;35515;48.766;9.176;2024-02-26T07:19:03;4.22;;;2.95;;
49610;SDS011;35515;48.766;9.176;2024-02-26T07:21:30;3.75;;;3.00;;
49610;SDS011;35515;48.766;9.176;2024-02-26T07:23:56;5.90;;;3.40;;
49610;SDS011;35515;48.766;9.176;2024-02-26T07:26:23;5.38;;;3.42;;
49610;SDS011;35515;48.766;9.176;2024-02-26T07:28:51;6.13;;;3.33;;
49610;SDS011;35515;48.766;9.176;2024-02-26T07:31:19;5.55;;;3.08;;
49610;SDS011;35515;48.766;9.176;2024-02-26T07:33:45;5.05;;;3.20;;
49610;SDS011;35515;48.766;9.176;2024-02-26T07:36:12;6.43;;;3.65;;
49610;SDS011;35515;48.766;9.176;2024-02-26T07:38:39;8.30;;;4.18;;
49610;SDS011;35515;48.766;9.176;2024-02-26T07:41:05;4.78;;;3.40;;
49610;SDS011;35515;48.766;9.176;2024-02-26T07:43:32;6.50;;;3.40;;
49610;SDS011;35515;48.766;9.176;2024-02-26T07:45:58;4.57;;;3.05;;
49610;SDS011;35515;48.766;9.176;2024-02-26T07:48:26;5.10;;;3.40;;
49610;SDS011;35515;48.766;9.176;2024-02-26T07:50:53;6.75;;;4.10;;
49610;SDS011;35515;48.766;9.176;2024-02-26T07:53:19;7.97;;;3.95;;
49610;SDS011;35515;48.766;9.176;2024-02-26T07:55:46;6.63;;;3.67;;
49610;SDS011;35515;48.766;9.176;2024-02-26T07:58:12;7.43;;;4.07;;
49610;SDS011;35515;48.766;9.176;2024-02-26T08:00:39;6.80;;;3.90;;
49610;SDS011;35515;48.766;9.176;2024-02-26T08:03:05;6.30;;;3.50;;
49610;SDS011;35515;48.766;9.176;2024-02-26T08:05:34;6.60;;;3.30;;
49610;SDS011;35515;48.766;9.176;2024-02-26T08:08:01;3.50;;;2.97;;
49610;SDS011;35515;48.766;9.176;2024-02-26T08:10:27;7.38;;;3.45;;
49610;SDS011;35515;48.766;9.176;2024-02-26T08:12:54;4.18;;;2.90;;
49610;SDS011;35515;48.766;9.176;2024-02-26T08:15:23;4.60;;;3.40;;
49610;SDS011;35515;48.766;9.176;2024-02-26T08:17:49;7.43;;;3.60;;
49610;SDS011;35515;48.766;9.176;2024-02-26T08:20:18;5.60;;;3.08;;
49610;SDS011;35515;48.766;9.176;2024-02-26T08:22:46;3.88;;;2.40;;
49610;SDS011;35515;48.766;9.176;2024-02-26T08:25:12;5.00;;;2.88;;
49610;SDS011;35515;48.766;9.176;2024-02-26T08:27:41;4.95;;;3.03;;
49610;SDS011;35515;48.766;9.176;2024-02-26T08:30:08;6.63;;;2.88;;
49610;SDS011;35515;48.766;9.176;2024-02-26T08:32:35;4.38;;;3.05;;
49610;SDS011;35515;48.766;9.176;2024-02-26T08:35:01;7.55;;;4.03;;
49610;SDS011;35515;48.766;9.176;2024-02-26T08:37:28;5.90;;;2.95;;
49610;SDS011;35515;48.766;9.176;2024-02-26T08:39:56;4.93;;;2.55;;
49610;SDS011;35515;48.766;9.176;2024-02-26T08:42:23;6.20;;;2.92;;
49610;SDS011;35515;48.766;9.176;2024-02-26T08:44:49;5.68;;;2.88;;
49610;SDS011;35515;48.766;9.176;2024-02-26T08:47:16;5.97;;;3.30;;
49610;SDS011;35515;48.766;9.176;2024-02-26T08:49:42;6.03;;;2.50;;
49610;SDS011;35515;48.766;9.176;2024-02-26T08:52:10;5.30;;;2.85;;
49610;SDS011;35515;48.766;9.176;2024-02-26T08:54:37;3.33;;;2.53;;
49610;SDS011;35515;48.766;9.176;2024-02-26T08:57:05;4.20;;;2.60;;
49610;SDS011;35515;48.766;9.176;2024-02-26T08:59:31;6.35;;;2.83;;
49610;SDS011;35515;48.766;9.176;2024-02-26T09:01:58;4.18;;;2.40;;
49610;SDS011;35515;48.766;9.176;2024-02-26T09:04:24;3.00;;;2.30;;
49610;SDS011;35515;48.766;9.176;2024-02-26T09:06:52;4.95;;;2.47;;
49610;SDS011;35515;48.766;9.176;2024-02-26T09:09:19;7.15;;;2.78;;
49610;SDS011;35515;48.766;9.176;2024-02-26T09:11:47;5.20;;;2.75;;
49610;SDS011;35515;48.766;9.176;2024-02-26T09:14:15;6.45;;;2.72;;
49610;SDS011;35515;48.766;9.176;2024-02-26T09:16:41;5.00;;;2.70;;
49610;SDS011;35515;48.766;9.176;2024-02-26T09:19:08;3.75;;;2.40;;
49610;SDS011;35515;48.766;9.176;2024-02-26T09:21:34;10.23;;;5.28;;
49610;SDS011;35515;48.766;9.176;2024-02-26T09:24:01;9.95;;;4.90;;
49610;SDS011;35515;48.766;9.176;2024-02-26T09:26:28;7.18;;;3.90;;
49610;SDS011;35515;48.766;9.176;2024-02-26T09:28:54;4.63;;;2.53;;
49610;SDS011;35515;48.766;9.176;2024-02-26T09:31:22;5.75;;;3.53;;
49610;SDS011;35515;48.766;9.176;2024-02-26T09:33:51;6.15;;;3.03;;
49610;SDS011;35515;48.766;9.176;2024-02-26T09:36:17;8.82;;;3.50;;
49610;SDS011;35515;48.766;9.176;2024-02-26T09:38:44;7.28;;;3.50;;
49610;SDS011;35515;48.766;9.176;2024-02-26T09:41:11;7.88;;;3.35;;
49610;SDS011;35515;48.766;9.176;2024-02-26T09:43:40;8.55;;;4.05;;
49610;SDS011;35515;48.766;9.176;2024-02-26T09:46:10;6.50;;;3.97;;
49610;SDS011;35515;48.766;9.176;2024-02-26T09:48:38;5.45;;;3.58;;
49610;SDS011;35515;48.766;9.176;2024-02-26T09:51:05;7.05;;;4.40;;
49610;SDS011;35515;48.766;9.176;2024-02-26T09:53:32;5.85;;;3.70;;
49610;SDS011;35515;48.766;9.176;2024-02-26T09:56:01;7.10;;;3.75;;
49610;SDS011;35515;48.766;9.176;2024-02-26T09:58:28;9.18;;;4.38;;
49610;SDS011;35515;48.766;9.176;2024-02-26T10:00:56;7.93;;;3.53;;
49610;SDS011;35515;48.766;9.176;2024-02-26T10:03:25;9.25;;;3.83;;
49610;SDS011;35515;48.766;9.176;2024-02-26T10:05:58;8.02;;;3.65;;
49610;SDS011;35515;48.766;9.176;2024-02-26T10:08:24;6.20;;;3.30;;
49610;SDS011;35515;48.766;9.176;2024-02-26T10:10:53;4.53;;;3.20;;
49610;SDS011;35515;48.766;9.176;2024-02-26T10:13:21;7.07;;;3.75;;
49610;SDS011;35515;48.766;9.176;2024-02-26T10:15:48;7.10;;;4.20;;
49610;SDS011;35515;48.766;9.176;2024-02-26T10:18:14;7.13;;;3.28;;
49610;SDS011;35515;48.766;9.176;2024-02-26T10:20:41;5.88;;;3.40;;
49610;SDS011;35515;48.766;9.176;2024-02-26T10:23:09;5.10;;;2.92;;
49610;SDS011;35515;48.766;9.176;2024-02-26T10:25:36;4.88;;;3.10;;
49610;SDS011;35515;48.766;9.176;2024-02-26T10:28:02;8.45;;;3.50;;
49610;SDS011;35515;48.766;9.176;2024-02-26T10:30:29;11.32;;;4.13;;
49610;SDS011;35515;48.766;9.176;2024-02-26T10:32:56;7.38;;;3.45;;
49610;SDS011;35515;48.766;9.176;2024-02-26T10:35:23;9.43;;;4.13;;
49610;SDS011;35515;48.766;9.176;2024-02-26T10:37:51;10.30;;;4.32;;
49610;SDS011;35515;48.766;9.176;2024-02-26T10:40:20;7.15;;;4.05;;
49610;SDS011;35515;48.766;9.176;2024-02-26T10:42:46;4.93;;;3.72;;
49610;SDS011;35515;48.766;9.176;2024-02-26T10:45:13;6.13;;;2.83;;
49610;SDS011;35515;48.766;9.176;2024-02-26T10:47:40;4.32;;;2.38;;
49610;SDS011;35515;48.766;9.176;2024-02-26T10:50:07;4.13;;;2.15;;
49610;SDS011;35515;48.766;9.176;2024-02-26T10:52:35;4.07;;;2.10;;
49610;SDS011;35515;48.766;9.176;2024-02-26T10:55:03;3.28;;;1.95;;
49610;SDS011;35515;48.766;9.176;2024-02-26T10:57:33;3.60;;;2.28;;
49610;SDS011;35515;48.766;9.176;2024-02-26T11:00:08;5.18;;;2.67;;
49610;SDS011;35515;48.766;9.176;2024-02-26T11:02:40;5.60;;;2.50;;
49610;SDS011;35515;48.766;9.176;2024-02-26T11:05:07;2.85;;;1.92;;
49610;SDS011;35515;48.766;9.176;2024-02-26T11:07:34;3.75;;;2.17;;
49610;SDS011;35515;48.766;9.176;2024-02-26T11:10:02;3.78;;;2.00;;
49610;SDS011;35515;48.766;9.176;2024-02-26T11:12:32;4.32;;;1.80;;
49610;SDS011;35515;48.766;9.176;2024-02-26T11:15:02;4.50;;;1.73;;
49610;SDS011;35515;48.766;9.176;2024-02-26T11:17:30;5.50;;;2.38;;
49610;SDS011;35515;48.766;9.176;2024-02-26T11:19:58;5.25;;;2.83;;
49610;SDS011;35515;48.766;9.176;2024-02-26T11:22:25;5.03;;;3.53;;
49610;SDS011;35515;48.766;9.176;2024-02-26T11:24:52;5.53;;;3.40;;
49610;SDS011;35515;48.766;9.176;2024-02-26T11:27:20;8.73;;;4.00;;
49610;SDS011;35515;48.766;9.176;2024-02-26T11:29:52;6.03;;;3.50;;
49610;SDS011;35515;48.766;9.176;2024-02-26T11:32:22;5.35;;;3.03;;
49610;SDS011;35515;48.766;9.176;2024-02-26T11:34:49;6.13;;;3.65;;
49610;SDS011;35515;48.766;9.176;2024-02-26T11:37:16;5.03;;;3.58;;
49610;SDS011;35515;48.766;9.176;2024-02-26T11:39:45;6.38;;;3.95;;
49610;SDS011;35515;48.766;9.176;2024-02-26T11:42:13;6.50;;;3.25;;
49610;SDS011;35515;48.766;9.176;2024-02-26T11:44:41;5.47;;;2.90;;
49610;SDS011;35515;48.766;9.176;2024-02-26T11:47:12;5.43;;;2.67;;
49610;SDS011;35515;48.766;9.176;2024-02-26T11:49:40;4.80;;;3.10;;
49610;SDS011;35515;48.766;9.176;2024-02-26T11:52:07;4.80;;;2.70;;
49610;SDS011;35515;48.766;9.176;2024-02-26T11:54:38;6.25;;;2.45;;
49610;SDS011;35515;48.766;9.176;2024-02-26T12:00:11;5.95;;;2.88;;
49610;SDS011;35515;48.766;9.176;2024-02-26T12:02:43;5.75;;;3.30;;
49610;SDS011;35515;48.766;9.176;2024-02-26T12:05:11;4.78;;;2.80;;
49610;SDS011;35515;48.766;9.176;2024-02-26T12:07:41;7.93;;;3.13;;
49610;SDS011;35515;48.766;9.176;2024-02-26T12:10:14;7.80;;;2.90;;
49610;SDS011;35515;48.766;9.176;2024-02-26T12:12:52;4.85;;;3.00;;
49610;SDS011;35515;48.766;9.176;2024-02-26T12:15:19;5.20;;;3.30;;
49610;SDS011;35515;48.766;9.176;2024-02-26T12:17:50;7.93;;;3.75;;
49610;SDS011;35515;48.766;9.176;2024-02-26T12:20:18;6.28;;;3.05;;
49610;SDS011;35515;48.766;9.176;2024-02-26T12:22:46;6.03;;;3.15;;
49610;SDS011;35515;48.766;9.176;2024-02-26T12:25:13;6.75;;;3.00;;
49610;SDS011;35515;48.766;9.176;2024-02-26T12:27:40;6.63;;;2.80;;
49610;SDS011;35515;48.766;9.176;2024-02-26T12:30:07;5.18;;;2.88;;
49610;SDS011;35515;48.766;9.176;2024-02-26T12:32:34;8.90;;;3.30;;
49610;SDS011;35515;48.766;9.176;2024-02-26T12:35:03;6.88;;;3.40;;
49610;SDS011;35515;48.766;9.176;2024-02-26T12:37:31;7.60;;;2.70;;
49610;SDS011;35515;48.766;9.176;2024-02-26T12:39:58;5.47;;;3.10;;
49610;SDS011;35515;48.766;9.176;2024-02-26T12:42:25;5.90;;;2.47;;
49610;SDS011;35515;48.766;9.176;2024-02-26T12:44:52;4.43;;;2.60;;
49610;SDS011;35515;48.766;9.176;2024-02-26T12:47:18;4.95;;;2.70;;
49610;SDS011;35515;48.766;9.176;2024-02-26T12:49:46;6.40;;;2.90;;
49610;SDS011;35515;48.766;9.176;2024-02-26T12:52:15;5.78;;;2.83;;
49610;SDS011;35515;48.766;9.176;2024-02-26T12:54:42;11.10;;;3.05;;
49610;SDS011;35515;48.766;9.176;2024-02-26T12:57:10;10.85;;;4.88;;
49610;SDS011;35515;48.766;9.176;2024-02-26T12:59:37;8.48;;;3.75;;
49610;SDS011;35515;48.766;9.176;2024-02-26T13:02:04;7.88;;;2.80;;
49610;SDS011;35515;48.766;9.176;2024-02-26T13:04:31;5.70;;;2.72;;
49610;SDS011;35515;48.766;9.176;2024-02-26T13:06:58;6.43;;;2.60;;
49610;SDS011;35515;48.766;9.176;2024-02-26T13:09:30;7.82;;;3.03;;
49610;SDS011;35515;48.766;9.176;2024-02-26T13:14:26;4.43;;;3.05;;
49610;SDS011;35515;48.766;9.176;2024-02-26T13:16:56;6.45;;;2.92;;
49610;SDS011;35515;48.766;9.176;2024-02-26T13:19:22;4.20;;;2.45;;
49610;SDS011;35515;48.766;9.176;2024-02-26T13:21:49;4.43;;;2.60;;
49610;SDS011;35515;48.766;9.176;2024-02-26T13:24:16;3.60;;;2.53;;
49610;SDS011;35515;48.766;9.176;2024-02-26T13:26:44;5.45;;;2.50;;
49610;SDS011;35515;48.766;9.176;2024-02-26T13:29:16;9.70;;;2.67;;
49610;SDS011;35515;48.766;9.176;2024-02-26T13:31:43;4.25;;;2.38;;
49610;SDS011;35515;48.766;9.176;2024-02-26T13:34:09;4.43;;;2.40;;
49610;SDS011;35515;48.766;9.176;2024-02-26T13:36:36;2.78;;;2.13;;
49610;SDS011;35515;48.766;9.176;2024-02-26T13:39:03;2.42;;;1.75;;
49610;SDS011;35515;48.766;9.176;2024-02-26T13:41:30;3.75;;;1.90;;
49610;SDS011;35515;48.766;9.176;2024-02-26T13:43:58;3.42;;;1.67;;
49610;SDS011;35515;48.766;9.176;2024-02-26T13:46:25;2.05;;;1.58;;
49610;SDS011;35515;48.766;9.176;2024-02-26T13:48:51;3.45;;;2.15;;
49610;SDS011;35515;48.766;9.176;2024-02-26T13:51:19;2.38;;;1.30;;
49610;SDS011;35515;48.766;9.176;2024-02-26T13:53:46;4.28;;;2.17;;
49610;SDS011;35515;48.766;9.176;2024-02-26T13:56:12;7.80;;;4.57;;
49610;SDS011;35515;48.766;9.176;2024-02-26T13:58:39;3.13;;;1.70;;
49610;SDS011;35515;48.766;9.176;2024-02-26T14:01:07;2.00;;;1.30;;
49610;SDS011;35515;48.766;9.176;2024-02-26T14:03:34;1.98;;;1.20;;
49610;SDS011;35515;48.766;9.176;2024-02-26T14:06:00;2.45;;;1.30;;
49610;SDS011;35515;48.766;9.176;2024-02-26T14:08:27;1.45;;;1.00;;
49610;SDS011;35515;48.766;9.176;2024-02-26T14:10:53;1.80;;;1.30;;
49610;SDS011;35515;48.766;9.176;2024-02-26T14:13:20;2.15;;;1.00;;
49610;SDS011;35515;48.766;9.176;2024-02-26T14:15:46;1.65;;;1.00;;
49610;SDS011;35515;48.766;9.176;2024-02-26T14:18:14;1.10;;;0.82;;
49610;SDS011;35515;48.766;9.176;2024-02-26T14:20:41;0.82;;;0.80;;
49610;SDS011;35515;48.766;9.176;2024-02-26T14:23:09;1.73;;;0.63;;
49610;SDS011;35515;48.766;9.176;2024-02-26T14:25:36;0.93;;;0.80;;
49610;SDS011;35515;48.766;9.176;2024-02-26T14:28:03;1.75;;;0.90;;
49610;SDS011;35515;48.766;9.176;2024-02-26T14:30:30;0.80;;;0.70;;
49610;SDS011;35515;48.766;9.176;2024-02-26T14:32:57;1.05;;;0.70;;
49610;SDS011;35515;48.766;9.176;2024-02-26T14:35:25;0.82;;;0.70;;
49610;SDS011;35515;48.766;9.176;2024-02-26T14:37:52;1.58;;;0.60;;
49610;SDS011;35515;48.766;9.176;2024-02-26T14:40:20;3.08;;;0.80;;
49610;SDS011;35515;48.766;9.176;2024-02-26T14:42:46;0.82;;;0.70;;
49610;SDS011;35515;48.766;9.176;2024-02-26T14:45:13;1.63;;;0.90;;
49610;SDS011;35515;48.766;9.176;2024-02-26T14:47:40;1.75;;;1.10;;
49610;SDS011;35515;48.766;9.176;2024-02-26T14:50:07;1.90;;;1.10;;
49610;SDS011;35515;48.766;9.176;2024-02-26T14:52:35;2.88;;;1.38;;